KNSO2: Flint Creek

Data processed at Wed May 22 2019 23:50


All information presented herein is the property of the government of the United States of America and may be revised or deleted at any time without prior notice.
Dissemination of this information without the expressed written consent of the Public Affairs Office, Tulsa District U.S. Army Corps of Engineers is strictly prohibited.
These data are gathered electronically and, as presented, have not undergone any form of quality control. These data are not guaranteed to be valid or correct.
Go to home page.
Go to station list.
Go to home page.

Upstream stations:

Downstream station:
Previous Day
Next Day
Current Day
    
SHEF ID:       KNSO2     Flint Creek near Kansas, OK
STATION TYPE:  
Regulating: Stage =    11.00, Flow =     8000

               PRECIP PRECIP(A)     STAGE  RIV-FLOW   VOLTAGE
                   in        in        ft       cfs      volt
              Ccp-Rev   Ccp-Rev   Ccp-Rev   Ccp-Rev   Ccp-Rev
(US/Central)
05/22 00:00      0.00      ----      8.09      1867     11.70
05/22 01:00      0.00      ----      8.04      1779     11.60
05/22 02:00      0.00      ----      7.97      1655     11.60
05/22 03:00      0.00      ----      7.89      1519     11.60
05/22 04:00      0.00      ----      7.84      1436     11.60
05/22 05:00      0.00      ----      7.78      1341     11.60
05/22 06:00      0.00      ----      7.76      1310     11.50
05/22 07:00      0.00      ----      7.71      1233     11.50
05/22 08:00      0.00      ----      7.67      1174     11.90
05/22 09:00      0.00      ----      7.63      1116     12.40
05/22 10:00      0.00      ----      7.60      1074     12.50
05/22 11:00      0.00      ----      7.57      1032     12.40
05/22 12:00      0.00      ----      7.54       991     12.50
05/22 13:00      0.00      ----      7.51       952     12.50
05/22 14:00      0.00      ----      7.48       912     12.30
05/22 15:00      0.00      ----      7.46       887     12.20
05/22 16:00      0.00      ----      7.43       848     12.10
05/22 17:00      0.00      ----      7.42       836     12.10
05/22 18:00      0.00      ----      7.40       811     11.90
05/22 19:00      0.00      ----      7.38       787     11.70
05/22 20:00      0.00      ----      7.35       751     11.50
05/22 21:00      0.00      ----      7.34       740     11.50
05/22 22:00      0.00      ----      7.32       717     11.30
05/22 23:00      0.00      ----      7.32       717     11.30